Time;durP1;ratioP1;P1;durP2;ratioP2;P2;SDS_P1;SDS_P2;PMS_P1;PMS_P2;Temp;Humidity;BMP_temperature;BMP_pressure;BME280_temperature;BME280_humidity;BME280_pressure;Samples;Min_cycle;Max_cycle;Signal;HPM_P1;HPM_P2
2023/10/26 00:01:09;;;;;;;63.00;33.00;;;;;;;-141.97;nan;47707.44;5051305;28;20181;-86
2023/10/26 00:03:35;;;;;;;72.97;33.67;;;;;;;-141.97;nan;47670.91;5051272;28;20197;-86
2023/10/26 00:06:00;;;;;;;62.93;32.90;;;;;;;-141.97;nan;47784.34;5050766;28;20299;-85
2023/10/26 00:08:26;;;;;;;65.23;33.33;;;;;;;-141.97;nan;47659.38;5050990;28;20606;-85
2023/10/26 00:10:52;;;;;;;66.77;34.43;;;;;;;-141.97;nan;47645.94;5033115;28;20197;-85
2023/10/26 00:13:18;;;;;;;61.80;33.17;;;;;;;-141.97;nan;47609.41;5033132;28;20173;-85
2023/10/26 00:15:43;;;;;;;65.33;30.93;;;;;;;-141.97;nan;47601.72;5050839;28;20663;-85
2023/10/26 00:18:09;;;;;;;55.73;31.73;;;;;;;-141.97;nan;47676.69;5051016;28;20703;-86
2023/10/26 00:20:34;;;;;;;63.30;31.27;;;;;;;-141.97;nan;47826.63;5038844;28;20153;-84
2023/10/26 00:23:01;;;;;;;66.10;32.17;;;;;;;-141.97;nan;47780.47;5044961;28;20508;-82
2023/10/26 00:25:27;;;;;;;64.93;32.33;;;;;;;-141.97;nan;47630.56;5073413;28;20244;-83
2023/10/26 00:27:52;;;;;;;58.07;31.37;;;;;;;-141.97;nan;47684.38;5055468;28;20191;-83
2023/10/26 00:30:18;;;;;;;60.80;32.17;;;;;;;-141.97;nan;47626.72;5038112;28;20212;-84
2023/10/26 00:32:43;;;;;;;61.07;32.57;;;;;;;-141.97;nan;47649.78;5037903;28;20196;-84
2023/10/26 00:35:09;;;;;;;60.87;31.93;;;;;;;-141.97;nan;47809.31;5038454;28;20683;-84
2023/10/26 00:37:34;;;;;;;64.80;32.30;;;;;;;-141.97;nan;47630.56;5037320;28;20552;-84
2023/10/26 00:40:00;;;;;;;60.37;32.47;;;;;;;-141.97;nan;47665.16;5033487;28;20196;-84
2023/10/26 00:42:25;;;;;;;57.83;31.93;;;;;;;-141.97;nan;47567.13;5050680;28;20310;-84
2023/10/26 00:44:53;;;;;;;57.83;31.10;;;;;;;-141.97;nan;47588.28;5032460;28;20323;-85
2023/10/26 00:47:19;;;;;;;62.33;33.30;;;;;;;-141.97;nan;47609.41;5050178;28;20169;-83
2023/10/26 00:49:44;;;;;;;61.47;31.03;;;;;;;-141.97;nan;47788.19;5050488;28;20278;-84
2023/10/26 00:52:11;;;;;;;56.67;28.63;;;;;;;-141.97;nan;47703.59;5050374;28;20633;-84
2023/10/26 00:54:41;;;;;;;57.63;30.43;;;;;;;-141.97;nan;47697.84;5050731;28;20162;-83
2023/10/26 00:57:07;;;;;;;55.23;30.37;;;;;;;-141.97;nan;47670.91;5065604;28;20192;-83
2023/10/26 00:59:33;;;;;;;60.70;30.77;;;;;;;-141.97;nan;47680.53;5064346;28;20177;-83
2023/10/26 01:02:01;;;;;;;57.97;30.00;;;;;;;-141.97;nan;47709.38;5051087;28;20178;-83
2023/10/26 01:04:26;;;;;;;57.27;30.10;;;;;;;-141.97;nan;47682.47;5061817;28;20158;-82
2023/10/26 01:06:52;;;;;;;56.17;28.83;;;;;;;-141.97;nan;47647.84;5075728;28;20161;-82
2023/10/26 01:09:17;;;;;;;52.47;28.63;;;;;;;-141.97;nan;47603.66;5058670;28;20536;-83
2023/10/26 01:11:43;;;;;;;55.53;28.33;;;;;;;-141.97;nan;47672.84;5055146;28;20177;-84
2023/10/26 01:14:09;;;;;;;59.03;30.20;;;;;;;-141.97;nan;47669.00;5048983;28;20193;-84
2023/10/26 01:16:35;;;;;;;59.63;30.53;;;;;;;-141.97;nan;47761.25;5037232;28;20174;-83
2023/10/26 01:19:05;;;;;;;60.03;29.97;;;;;;;-141.97;nan;47688.22;5054121;28;20168;-85
2023/10/26 01:21:32;;;;;;;54.80;29.07;;;;;;;-141.97;nan;47580.59;5035945;28;20264;-84
2023/10/26 01:23:57;;;;;;;59.40;29.50;;;;;;;-141.97;nan;47586.34;5054483;28;20253;-84
2023/10/26 01:26:23;;;;;;;45.33;27.50;;;;;;;-141.97;nan;47678.63;5036491;28;20613;-84
2023/10/26 01:28:49;;;;;;;53.37;29.53;;;;;;;-141.97;nan;47638.25;5037050;28;20165;-82
2023/10/26 01:31:16;;;;;;;53.93;28.83;;;;;;;-141.97;nan;47703.59;5055053;28;20684;-83
2023/10/26 01:33:42;;;;;;;57.13;30.03;;;;;;;-141.97;nan;47680.53;5038583;28;20173;-83
2023/10/26 01:36:08;;;;;;;53.53;30.10;;;;;;;-141.97;nan;47626.72;5057357;28;20224;-84
2023/10/26 01:38:34;;;;;;;56.03;30.20;;;;;;;-141.97;nan;47620.94;5038032;28;20173;-84
2023/10/26 01:40:59;;;;;;;56.63;29.67;;;;;;;-141.97;nan;47619.03;5053973;28;20649;-85
2023/10/26 01:43:25;;;;;;;58.20;30.67;;;;;;;-141.97;nan;47665.16;5026803;28;20237;-85
2023/10/26 01:45:51;;;;;;;51.93;29.83;;;;;;;-141.97;nan;47811.25;5054530;28;20186;-84
2023/10/26 01:48:16;;;;;;;57.13;30.63;;;;;;;-141.97;nan;47655.53;5054517;28;20189;-84
2023/10/26 01:50:41;;;;;;;53.33;29.07;;;;;;;-141.97;nan;47715.13;5054880;28;20556;-83
2023/10/26 01:53:07;;;;;;;59.00;30.20;;;;;;;-141.97;nan;47695.91;5055300;28;20232;-83
2023/10/26 01:55:32;;;;;;;53.90;29.63;;;;;;;-141.97;nan;47676.69;5036609;28;20700;-81
2023/10/26 01:57:58;;;;;;;59.03;29.50;;;;;;;-141.97;nan;47684.38;5053516;28;20153;-81
2023/10/26 02:00:24;;;;;;;58.63;30.07;;;;;;;-141.97;nan;47576.75;5037164;28;20174;-84
2023/10/26 02:02:49;;;;;;;60.73;29.83;;;;;;;-141.97;nan;47692.06;5054805;28;20238;-84
2023/10/26 02:05:16;;;;;;;58.60;30.83;;;;;;;-141.97;nan;47692.06;5054068;28;20193;-82
2023/10/26 02:07:42;;;;;;;58.20;28.70;;;;;;;-141.97;nan;47809.31;5047111;28;20181;-82
2023/10/26 02:10:08;;;;;;;51.37;29.23;;;;;;;-141.97;nan;47653.63;5038038;28;20292;-83
2023/10/26 02:12:34;;;;;;;57.57;28.87;;;;;;;-141.97;nan;47722.81;5054147;28;20684;-83
2023/10/26 02:14:59;;;;;;;54.53;29.20;;;;;;;-141.97;nan;47620.94;5054741;28;20173;-84
2023/10/26 02:17:24;;;;;;;59.83;30.00;;;;;;;-141.97;nan;47653.63;5036182;28;20169;-83
2023/10/26 02:19:50;;;;;;;57.10;29.40;;;;;;;-141.97;nan;47707.44;5036159;28;20157;-83
2023/10/26 02:22:15;;;;;;;61.13;30.10;;;;;;;-141.97;nan;47676.69;5053998;28;20820;-84
2023/10/26 02:24:41;;;;;;;59.07;30.83;;;;;;;-141.97;nan;47642.09;5053637;28;20249;-83
2023/10/26 02:27:07;;;;;;;61.57;30.90;;;;;;;-141.97;nan;47599.81;5036522;28;20610;-84
2023/10/26 02:29:33;;;;;;;58.60;31.13;;;;;;;-141.97;nan;47670.91;5035719;28;20165;-85
2023/10/26 02:31:58;;;;;;;65.10;29.97;;;;;;;-141.97;nan;47792.03;5054082;28;20223;-85
2023/10/26 02:34:23;;;;;;;60.33;31.87;;;;;;;-141.97;nan;47597.88;5035703;28;20530;-85
2023/10/26 02:36:49;;;;;;;66.47;31.57;;;;;;;-141.97;nan;47768.94;5035652;28;20173;-85
2023/10/26 02:39:14;;;;;;;73.87;33.63;;;;;;;-141.97;nan;47630.56;5036739;28;20169;-85
2023/10/26 02:41:40;;;;;;;62.43;31.23;;;;;;;-141.97;nan;47684.38;5036617;28;20200;-85
2023/10/26 02:44:05;;;;;;;62.47;31.63;;;;;;;-141.97;nan;47626.72;5026048;28;20658;-85
2023/10/26 02:46:31;;;;;;;71.70;32.77;;;;;;;-141.97;nan;47695.91;5037498;28;20190;-85
2023/10/26 02:48:57;;;;;;;63.80;31.77;;;;;;;-141.97;nan;47653.63;5053441;28;20173;-85
2023/10/26 02:51:23;;;;;;;67.77;32.47;;;;;;;-141.97;nan;47818.94;5054124;28;20185;-85
2023/10/26 02:53:49;;;;;;;66.73;32.57;;;;;;;-141.97;nan;47788.19;5038284;28;20232;-84
2023/10/26 02:56:14;;;;;;;67.20;32.53;;;;;;;-141.97;nan;47711.28;5044915;28;20239;-85
2023/10/26 02:58:40;;;;;;;70.53;33.80;;;;;;;-141.97;nan;47640.16;5057394;28;20240;-85
2023/10/26 03:01:05;;;;;;;67.63;34.30;;;;;;;-141.97;nan;47707.44;5037784;28;20252;-85
2023/10/26 03:03:30;;;;;;;67.87;33.33;;;;;;;-141.97;nan;47811.25;5036513;28;20211;-86
2023/10/26 03:05:59;;;;;;;68.57;33.97;;;;;;;-141.97;nan;47694.00;5053769;28;20189;-85
2023/10/26 03:08:24;;;;;;;60.10;31.93;;;;;;;-141.97;nan;47726.66;5055316;28;20157;-85
2023/10/26 03:10:49;;;;;;;76.17;33.43;;;;;;;-141.97;nan;47701.69;5049593;28;20204;-85
2023/10/26 03:13:15;;;;;;;62.57;33.73;;;;;;;-141.97;nan;47640.16;5063607;28;20176;-85
2023/10/26 03:15:40;;;;;;;57.93;32.23;;;;;;;-141.97;nan;47842.00;5055292;28;20169;-85
2023/10/26 03:18:06;;;;;;;61.90;32.57;;;;;;;-141.97;nan;47636.31;5054981;28;20191;-83
2023/10/26 03:20:32;;;;;;;63.27;31.77;;;;;;;-141.97;nan;47699.75;5054179;28;20169;-82
2023/10/26 03:22:58;;;;;;;67.00;33.93;;;;;;;-141.97;nan;47669.00;5053347;28;20176;-83
2023/10/26 03:25:25;;;;;;;61.63;31.63;;;;;;;-141.97;nan;47709.38;5033683;28;20564;-82
2023/10/26 03:27:50;;;;;;;68.57;33.43;;;;;;;-141.97;nan;47624.78;5051359;28;20173;-82
2023/10/26 03:30:17;;;;;;;70.30;35.83;;;;;;;-141.97;nan;47718.97;5051679;28;20561;-83
2023/10/26 03:32:43;;;;;;;75.07;37.60;;;;;;;-141.97;nan;47697.84;5033431;28;20196;-83
2023/10/26 03:35:09;;;;;;;62.40;34.07;;;;;;;-141.97;nan;47594.03;5051787;28;20533;-82
2023/10/26 03:37:36;;;;;;;62.67;33.47;;;;;;;-141.97;nan;47722.81;5052031;28;20256;-83
2023/10/26 03:40:02;;;;;;;63.53;31.63;;;;;;;-141.97;nan;47718.97;5051488;28;20272;-83
2023/10/26 03:42:28;;;;;;;63.23;32.70;;;;;;;-141.97;nan;47680.53;5041634;28;20284;-82
2023/10/26 03:44:53;;;;;;;73.67;34.17;;;;;;;-141.97;nan;47686.31;5052999;28;20256;-82
2023/10/26 03:47:19;;;;;;;61.93;33.30;;;;;;;-141.97;nan;47695.91;5033664;28;20167;-83
2023/10/26 03:49:45;;;;;;;66.50;33.70;;;;;;;-141.97;nan;47667.06;5051166;28;20185;-81
2023/10/26 03:52:11;;;;;;;75.23;34.77;;;;;;;-141.97;nan;47620.94;5050831;28;20224;-83
2023/10/26 03:54:37;;;;;;;71.40;35.30;;;;;;;-141.97;nan;47676.69;5051450;28;20193;-84
2023/10/26 03:57:03;;;;;;;61.27;33.73;;;;;;;-141.97;nan;47701.69;5033383;28;20169;-82
2023/10/26 03:59:29;;;;;;;65.87;34.90;;;;;;;-141.97;nan;47597.88;5033382;28;20264;-83
2023/10/26 04:01:54;;;;;;;63.80;33.73;;;;;;;-141.97;nan;47768.94;5050875;28;20253;-82
2023/10/26 04:04:19;;;;;;;73.57;36.83;;;;;;;-141.97;nan;47694.00;5050352;28;20184;-84
2023/10/26 04:06:45;;;;;;;67.93;37.13;;;;;;;-141.97;nan;47688.22;5051439;28;20173;-84
2023/10/26 04:09:10;;;;;;;71.27;34.73;;;;;;;-141.97;nan;47595.97;5051977;28;20693;-83
2023/10/26 04:11:36;;;;;;;66.07;35.20;;;;;;;-141.97;nan;47642.09;5070333;28;20279;-83
2023/10/26 04:14:01;;;;;;;78.70;40.20;;;;;;;-141.97;nan;47611.34;5037860;28;20193;-83
2023/10/26 04:16:27;;;;;;;84.43;45.77;;;;;;;-141.97;nan;47699.75;5051428;28;20240;-84
2023/10/26 04:18:53;;;;;;;229.13;121.73;;;;;;;-141.97;nan;47822.78;5033641;28;20184;-84
2023/10/26 04:21:18;;;;;;;143.43;64.90;;;;;;;-141.97;nan;47674.78;5051181;28;20165;-84
2023/10/26 04:23:43;;;;;;;90.87;43.70;;;;;;;-141.97;nan;47665.16;5052286;28;20614;-84
2023/10/26 04:26:11;;;;;;;83.43;42.47;;;;;;;-141.97;nan;47624.78;5033649;28;20188;-85
2023/10/26 04:28:36;;;;;;;75.53;39.00;;;;;;;-141.97;nan;47718.97;5033749;28;20177;-84
2023/10/26 04:31:04;;;;;;;70.73;37.10;;;;;;;-141.97;nan;47818.94;5033294;28;20570;-85
2023/10/26 04:33:30;;;;;;;69.40;35.63;;;;;;;-141.97;nan;47790.09;5032686;28;20181;-85
2023/10/26 04:35:57;;;;;;;62.70;33.13;;;;;;;-141.97;nan;47692.06;5051054;28;20640;-87
2023/10/26 04:38:25;;;;;;;61.40;33.33;;;;;;;-141.97;nan;47626.72;5053772;28;20177;-85
2023/10/26 04:40:50;;;;;;;66.07;33.60;;;;;;;-141.97;nan;47634.41;5067859;28;20150;-85
2023/10/26 04:43:16;;;;;;;63.10;36.27;;;;;;;-141.97;nan;47803.56;5044649;28;20282;-85
2023/10/26 04:45:41;;;;;;;67.77;36.53;;;;;;;-141.97;nan;47707.44;5074240;28;20172;-83
2023/10/26 04:48:06;;;;;;;78.57;39.57;;;;;;;-141.97;nan;47672.84;5062266;28;20672;-82
2023/10/26 04:50:32;;;;;;;69.70;39.10;;;;;;;-141.97;nan;47734.34;5050805;28;20185;-83
2023/10/26 04:52:58;;;;;;;71.57;38.47;;;;;;;-141.97;nan;47703.59;5037185;28;20264;-85
2023/10/26 04:55:24;;;;;;;67.97;38.03;;;;;;;-141.97;nan;47715.13;5055502;28;20164;-84
2023/10/26 04:57:49;;;;;;;82.00;40.47;;;;;;;-141.97;nan;47713.22;5055508;28;20157;-84
2023/10/26 05:00:14;;;;;;;74.17;36.13;;;;;;;-141.97;nan;47632.47;5055122;28;20165;-84
2023/10/26 05:02:41;;;;;;;69.10;34.03;;;;;;;-141.97;nan;47730.50;5054715;28;20782;-83
2023/10/26 05:05:10;;;;;;;68.67;34.97;;;;;;;-141.97;nan;47705.53;5051922;28;20173;-84
2023/10/26 05:07:35;;;;;;;108.40;53.00;;;;;;;-141.97;nan;47674.78;5062401;28;20208;-83
2023/10/26 05:10:00;;;;;;;91.37;42.57;;;;;;;-141.97;nan;47734.34;5070660;28;20246;-85
2023/10/26 05:12:26;;;;;;;72.70;37.07;;;;;;;-141.97;nan;47805.47;5066091;28;20224;-84
2023/10/26 05:14:51;;;;;;;70.77;34.03;;;;;;;-141.97;nan;47705.53;5063251;28;20181;-84
2023/10/26 05:17:17;;;;;;;71.50;33.20;;;;;;;-141.97;nan;47809.31;5059281;28;20169;-84
2023/10/26 05:19:42;;;;;;;67.43;33.40;;;;;;;-141.97;nan;47811.25;5043305;28;20185;-85
2023/10/26 05:22:08;;;;;;;66.27;33.03;;;;;;;-141.97;nan;47799.72;5055507;28;20168;-84
2023/10/26 05:24:34;;;;;;;71.50;34.77;;;;;;;-141.97;nan;47738.19;5053482;28;20177;-82
2023/10/26 05:26:59;;;;;;;79.53;42.47;;;;;;;-141.97;nan;47653.63;5053938;28;20161;-83
2023/10/26 05:29:25;;;;;;;78.47;41.17;;;;;;;-141.97;nan;47828.53;5053697;28;20169;-83
2023/10/26 05:31:51;;;;;;;97.23;51.80;;;;;;;-141.97;nan;47857.38;5035680;28;20239;-83
2023/10/26 05:34:17;;;;;;;94.50;50.30;;;;;;;-141.97;nan;47651.69;5053334;28;20181;-83
2023/10/26 05:36:42;;;;;;;82.47;41.80;;;;;;;-141.97;nan;47657.47;5053944;28;20157;-82
2023/10/26 05:39:07;;;;;;;66.97;34.27;;;;;;;-141.97;nan;47749.72;5035936;28;20618;-82
2023/10/26 05:41:34;;;;;;;72.53;34.67;;;;;;;-141.97;nan;47613.25;5035400;28;20157;-82
2023/10/26 05:43:59;;;;;;;66.47;32.97;;;;;;;-141.97;nan;47638.25;5043353;28;20380;-83
2023/10/26 05:46:25;;;;;;;68.50;34.43;;;;;;;-141.97;nan;47722.81;5053578;28;20165;-82
2023/10/26 05:48:50;;;;;;;64.43;32.17;;;;;;;-141.97;nan;47670.91;5053575;28;20182;-82
2023/10/26 05:51:16;;;;;;;70.43;32.90;;;;;;;-141.97;nan;47692.06;5035696;28;20649;-82
2023/10/26 05:53:41;;;;;;;68.70;32.83;;;;;;;-141.97;nan;47815.09;5053174;28;20795;-82
2023/10/26 05:56:07;;;;;;;69.40;33.63;;;;;;;-141.97;nan;47692.06;5053132;28;20192;-82
2023/10/26 05:58:32;;;;;;;70.93;31.80;;;;;;;-141.97;nan;47768.94;5053515;28;20173;-86
2023/10/26 06:00:58;;;;;;;68.57;33.63;;;;;;;-141.97;nan;47715.13;5036174;28;20169;-82
2023/10/26 06:03:24;;;;;;;67.07;34.17;;;;;;;-141.97;nan;47645.94;5052244;28;20161;-83
2023/10/26 06:05:49;;;;;;;74.60;34.00;;;;;;;-141.97;nan;47751.66;5053149;28;20176;-83
2023/10/26 06:08:15;;;;;;;66.13;33.60;;;;;;;-141.97;nan;47843.91;5035794;28;20166;-83
2023/10/26 06:10:40;;;;;;;77.70;36.77;;;;;;;-141.97;nan;47690.16;5064189;28;20191;-83
2023/10/26 06:13:09;;;;;;;77.83;34.23;;;;;;;-141.97;nan;47740.13;5073537;28;20165;-83
2023/10/26 06:15:35;;;;;;;144.73;78.10;;;;;;;-141.97;nan;47803.56;5038839;28;20277;-84
2023/10/26 06:18:00;;;;;;;88.27;38.80;;;;;;;-141.97;nan;47720.91;5037730;28;20197;-85
2023/10/26 06:20:28;;;;;;;72.60;36.83;;;;;;;-141.97;nan;47657.47;5053315;28;20563;-82
2023/10/26 06:22:56;;;;;;;75.97;35.97;;;;;;;-141.97;nan;47790.09;5053522;28;20578;-81
2023/10/26 06:25:21;;;;;;;76.43;34.83;;;;;;;-141.97;nan;47701.69;5035275;28;20181;-82
2023/10/26 06:27:47;;;;;;;73.17;35.50;;;;;;;-141.97;nan;47688.22;5035215;28;20255;-82
2023/10/26 06:30:15;;;;;;;62.43;30.73;;;;;;;-141.97;nan;47634.41;5053199;28;20281;-82
2023/10/26 06:32:40;;;;;;;71.47;32.03;;;;;;;-141.97;nan;47680.53;5034994;28;20185;-82
2023/10/26 06:35:06;;;;;;;67.43;32.07;;;;;;;-141.97;nan;47619.03;5035256;28;20235;-82
2023/10/26 06:37:32;;;;;;;59.77;31.03;;;;;;;-141.97;nan;47715.13;5034832;28;20209;-82
2023/10/26 06:39:57;;;;;;;68.03;32.67;;;;;;;-141.97;nan;47680.53;5053368;28;20249;-82
2023/10/26 06:42:23;;;;;;;67.87;28.37;;;;;;;-141.97;nan;47695.91;5054126;28;20166;-83
2023/10/26 06:44:49;;;;;;;57.60;28.23;;;;;;;-141.97;nan;47667.06;5024778;28;20228;-83
2023/10/26 06:47:14;;;;;;;61.10;28.70;;;;;;;-141.97;nan;47742.03;5053924;28;20519;-83
2023/10/26 06:49:41;;;;;;;63.50;30.47;;;;;;;-141.97;nan;47722.81;5055116;28;20534;-84
2023/10/26 06:52:07;;;;;;;58.47;29.30;;;;;;;-141.97;nan;47688.22;5036967;28;20169;-82
2023/10/26 06:54:32;;;;;;;63.37;29.10;;;;;;;-141.97;nan;47655.53;5054662;28;20174;-82
2023/10/26 06:56:59;;;;;;;58.67;29.47;;;;;;;-141.97;nan;47661.31;5057526;28;20193;-82
2023/10/26 06:59:24;;;;;;;63.97;28.53;;;;;;;-141.97;nan;47745.88;5055659;28;20640;-81
2023/10/26 07:01:50;;;;;;;55.50;24.17;;;;;;;-141.97;nan;47703.59;5053690;28;20161;-83
2023/10/26 07:04:16;;;;;;;53.63;23.50;;;;;;;-141.97;nan;47726.66;5039665;28;20264;-82
2023/10/26 07:06:41;;;;;;;57.07;25.77;;;;;;;-141.97;nan;47728.59;5063438;28;20173;-82
2023/10/26 07:09:07;;;;;;;48.50;23.73;;;;;;;-141.97;nan;47718.97;5061285;28;20618;-82
2023/10/26 07:11:32;;;;;;;52.60;22.73;;;;;;;-141.97;nan;47676.69;5069025;28;20208;-81
2023/10/26 07:13:58;;;;;;;46.77;22.67;;;;;;;-141.97;nan;47695.91;5059141;28;20616;-83
2023/10/26 07:16:24;;;;;;;40.13;22.67;;;;;;;-141.97;nan;47713.22;5034429;28;20177;-82
2023/10/26 07:18:50;;;;;;;52.13;23.03;;;;;;;-141.97;nan;47717.06;5034889;28;20184;-81
2023/10/26 07:21:15;;;;;;;58.07;22.77;;;;;;;-141.97;nan;47676.69;5034179;28;20173;-82
2023/10/26 07:23:40;;;;;;;47.20;22.63;;;;;;;-141.97;nan;47709.38;5051861;28;20169;-82
2023/10/26 07:26:06;;;;;;;103.37;53.43;;;;;;;-141.97;nan;47661.31;5033817;28;20642;-82
2023/10/26 07:28:31;;;;;;;72.70;35.30;;;;;;;-141.97;nan;47690.16;5051633;28;20442;-81
2023/10/26 07:30:57;;;;;;;94.70;49.83;;;;;;;-141.97;nan;47813.16;5050821;28;20189;-82
2023/10/26 07:33:23;;;;;;;70.73;34.00;;;;;;;-141.97;nan;47645.94;5033005;28;20604;-82
2023/10/26 07:35:50;;;;;;;60.33;26.10;;;;;;;-141.97;nan;47692.06;5032963;28;20173;-82
2023/10/26 07:38:19;;;;;;;49.27;23.47;;;;;;;-141.97;nan;47861.22;5052980;28;20165;-82
2023/10/26 07:40:58;;;;;;;60.33;26.00;;;;;;;-141.97;nan;47688.22;5039851;28;20181;-83
2023/10/26 07:43:23;;;;;;;53.17;23.60;;;;;;;-141.97;nan;47718.97;5058789;28;20191;-82
2023/10/26 07:45:51;;;;;;;52.27;20.53;;;;;;;-141.97;nan;47695.91;5053314;28;20177;-83
2023/10/26 07:48:17;;;;;;;49.07;18.60;;;;;;;-141.97;nan;47665.16;5051590;28;20150;-82
2023/10/26 07:50:42;;;;;;;50.10;20.23;;;;;;;-141.97;nan;47692.06;5051312;28;20683;-82
2023/10/26 07:53:08;;;;;;;57.90;21.90;;;;;;;-141.97;nan;47678.63;5050715;28;20689;-83
2023/10/26 07:55:34;;;;;;;66.30;31.60;;;;;;;-141.97;nan;47659.38;5032661;28;20264;-82
2023/10/26 07:57:59;;;;;;;56.97;22.13;;;;;;;-141.97;nan;47578.66;5050778;28;20244;-82
2023/10/26 08:00:25;;;;;;;50.07;21.53;;;;;;;-141.97;nan;47695.91;5032459;28;20705;-81
2023/10/26 08:02:50;;;;;;;40.20;16.00;;;;;;;-141.97;nan;47842.00;5032299;28;20812;-82
2023/10/26 08:05:16;;;;;;;40.70;15.43;;;;;;;-141.97;nan;47647.84;5050317;28;20185;-82
2023/10/26 08:07:41;;;;;;;38.23;14.33;;;;;;;-141.97;nan;47724.75;5050569;28;20234;-82
2023/10/26 08:10:09;;;;;;;48.00;15.40;;;;;;;-141.97;nan;47866.97;5039458;28;20206;-82
2023/10/26 08:12:34;;;;;;;43.30;13.97;;;;;;;-141.97;nan;47584.44;5071200;28;20222;-82
2023/10/26 08:15:01;;;;;;;38.80;13.17;;;;;;;-141.97;nan;47674.78;5063560;28;20169;-82
2023/10/26 08:17:26;;;;;;;37.00;11.40;;;;;;;-141.97;nan;47784.34;5052378;28;20162;-81
2023/10/26 08:19:53;;;;;;;38.23;12.57;;;;;;;-141.97;nan;47695.91;5051675;28;20180;-82
2023/10/26 08:22:20;;;;;;;34.07;11.53;;;;;;;-141.97;nan;47592.13;5050660;28;20647;-82
2023/10/26 08:24:46;;;;;;;41.80;12.30;;;;;;;-141.97;nan;47626.72;5033029;28;20299;-84
2023/10/26 08:27:11;;;;;;;59.23;19.70;;;;;;;-141.97;nan;47772.78;5034385;28;20189;-83
2023/10/26 08:29:37;;;;;;;51.67;17.47;;;;;;;-141.97;nan;47572.91;5053646;28;20169;-85
2023/10/26 08:32:03;;;;;;;44.97;16.40;;;;;;;-141.97;nan;47669.00;5042750;28;20165;-86
2023/10/26 08:34:29;;;;;;;45.77;14.67;;;;;;;-141.97;nan;47667.06;5053697;28;20153;-85
2023/10/26 08:36:54;;;;;;;39.47;14.37;;;;;;;-141.97;nan;47657.47;5050833;28;20215;-85
2023/10/26 08:39:19;;;;;;;45.07;16.43;;;;;;;-141.97;nan;47653.63;5051063;28;20189;-85
2023/10/26 08:41:50;;;;;;;43.40;14.57;;;;;;;-141.97;nan;47655.53;5051117;28;20639;-86
2023/10/26 08:44:17;;;;;;;44.60;13.87;;;;;;;-141.97;nan;47503.69;5032290;28;20161;-85
2023/10/26 08:46:44;;;;;;;40.77;14.50;;;;;;;-141.97;nan;47688.22;5036614;28;20165;-86
2023/10/26 08:49:13;;;;;;;40.43;14.47;;;;;;;-141.97;nan;47847.75;5035099;28;20216;-86
2023/10/26 08:51:38;;;;;;;42.90;16.57;;;;;;;-141.97;nan;47580.59;5055580;28;20238;-86
2023/10/26 08:54:05;;;;;;;45.77;17.27;;;;;;;-141.97;nan;47494.09;5055586;28;20213;-86
2023/10/26 08:56:31;;;;;;;46.50;15.63;;;;;;;-141.97;nan;47570.97;5042134;28;20340;-86
2023/10/26 08:58:58;;;;;;;41.87;15.70;;;;;;;-141.97;nan;47497.94;5042940;28;20169;-86
2023/10/26 09:01:24;;;;;;;38.67;15.73;;;;;;;-141.97;nan;47724.75;5059307;28;20192;-86
2023/10/26 09:03:50;;;;;;;41.60;15.40;;;;;;;-141.97;nan;47638.25;5076315;28;20161;-85
2023/10/26 09:06:17;;;;;;;46.40;15.70;;;;;;;-141.97;nan;47569.06;5058005;28;20165;-88
2023/10/26 09:08:58;;;;;;;44.83;15.47;;;;;;;-141.97;nan;47522.91;5064527;28;20158;-85
2023/10/26 09:11:25;;;;;;;41.20;15.77;;;;;;;-141.97;nan;47768.94;5058644;28;20204;-85
2023/10/26 09:13:52;;;;;;;46.10;16.53;;;;;;;-141.97;nan;47492.16;5058930;28;20149;-86
2023/10/26 09:16:21;;;;;;;46.87;15.77;;;;;;;-141.97;nan;47540.22;5057889;28;20169;-86
2023/10/26 09:18:53;;;;;;;47.70;15.67;;;;;;;-141.97;nan;47490.25;5038199;28;20165;-87
2023/10/26 09:21:18;;;;;;;42.73;15.37;;;;;;;-141.97;nan;47657.47;5063322;28;20160;-87
2023/10/26 09:23:45;;;;;;;36.70;13.90;;;;;;;-141.97;nan;47588.28;5053179;28;20233;-87
2023/10/26 09:26:11;;;;;;;34.93;13.33;;;;;;;-141.97;nan;47515.22;5032981;28;20673;-87
2023/10/26 09:28:53;;;;;;;41.43;12.90;;;;;;;-141.97;nan;47567.13;5033944;28;20161;-87
2023/10/26 09:31:18;;;;;;;37.10;13.67;;;;;;;-141.97;nan;47569.06;5033742;28;20670;-87
2023/10/26 09:33:45;;;;;;;27.43;10.70;;;;;;;-141.97;nan;47611.34;5038930;28;20314;-86
2023/10/26 09:36:18;;;;;;;37.90;12.87;;;;;;;-141.97;nan;47482.56;5036602;28;20174;-84
2023/10/26 09:38:43;;;;;;;39.00;13.23;;;;;;;-141.97;nan;47803.56;5034999;28;20219;-87
2023/10/26 09:41:13;;;;;;;42.77;13.70;;;;;;;-141.97;nan;47588.28;5054609;28;20157;-87
2023/10/26 09:43:40;;;;;;;36.67;13.03;;;;;;;-141.97;nan;47517.16;5036223;28;20238;-88
2023/10/26 09:46:07;;;;;;;37.17;12.67;;;;;;;-141.97;nan;47595.97;5037076;28;20165;-87
2023/10/26 09:48:32;;;;;;;38.80;13.37;;;;;;;-141.97;nan;47784.34;5052638;28;20162;-87
2023/10/26 09:51:01;;;;;;;41.50;12.83;;;;;;;-141.97;nan;47607.50;5051997;28;20224;-87
2023/10/26 09:53:35;;;;;;;44.60;13.70;;;;;;;-141.97;nan;47603.66;5043263;28;20217;-87
2023/10/26 09:56:02;;;;;;;42.47;12.20;;;;;;;-141.97;nan;47640.16;5054190;28;20195;-87
2023/10/26 09:58:33;;;;;;;38.90;12.00;;;;;;;-141.97;nan;47801.63;5037702;28;20165;-86
2023/10/26 10:00:58;;;;;;;35.10;11.40;;;;;;;-141.97;nan;47636.31;5049466;28;20216;-87
2023/10/26 10:03:26;;;;;;;37.07;11.80;;;;;;;-141.97;nan;47609.41;5055688;28;20196;-87
2023/10/26 10:05:51;;;;;;;36.53;11.23;;;;;;;-141.97;nan;47595.97;5029665;28;20274;-86
2023/10/26 10:08:54;;;;;;;39.67;11.50;;;;;;;-141.97;nan;47630.56;5052388;28;20650;-87
2023/10/26 10:11:20;;;;;;;42.33;11.70;;;;;;;-141.97;nan;47595.97;5067320;28;20196;-87
2023/10/26 10:13:45;;;;;;;42.30;11.03;;;;;;;-141.97;nan;47592.13;5073186;28;20175;-86
2023/10/26 10:16:35;;;;;;;46.73;12.17;;;;;;;-141.97;nan;47661.31;5048596;28;20177;-87
2023/10/26 10:19:16;;;;;;;32.80;11.23;;;;;;;-141.97;nan;47630.56;5053927;28;20570;-86
2023/10/26 10:21:41;;;;;;;37.67;12.07;;;;;;;-141.97;nan;47599.81;5035170;28;20177;-86
2023/10/26 10:24:07;;;;;;;46.73;12.57;;;;;;;-141.97;nan;47620.94;5054059;28;20248;-86
2023/10/26 10:27:10;;;;;;;42.20;12.20;;;;;;;-141.97;nan;47647.84;5035675;28;20272;-86
2023/10/26 10:29:36;;;;;;;34.90;11.33;;;;;;;-141.97;nan;47590.19;5053195;28;20177;-86
2023/10/26 10:32:01;;;;;;;40.73;11.67;;;;;;;-141.97;nan;47630.56;5036089;28;20707;-86
2023/10/26 10:34:31;;;;;;;39.97;10.80;;;;;;;-141.97;nan;47613.25;5053587;28;20192;-87
2023/10/26 10:37:21;;;;;;;37.77;11.17;;;;;;;-141.97;nan;47669.00;5035310;28;20184;-86
2023/10/26 10:40:15;;;;;;;38.73;11.70;;;;;;;-141.97;nan;47676.69;5035239;28;20177;-86
2023/10/26 10:42:47;;;;;;;31.47;11.17;;;;;;;-141.97;nan;47636.31;5035288;28;20512;-87
2023/10/26 10:45:12;;;;;;;36.33;11.83;;;;;;;-141.97;nan;47734.34;5053655;28;20240;-86
2023/10/26 10:47:42;;;;;;;42.23;12.47;;;;;;;-141.97;nan;47632.47;5055305;28;20175;-86
2023/10/26 10:50:14;;;;;;;52.60;12.73;;;;;;;-141.97;nan;47582.50;5056047;28;20680;-85
2023/10/26 10:52:43;;;;;;;39.67;12.73;;;;;;;-141.97;nan;47538.28;5054489;28;20225;-86
2023/10/26 10:55:09;;;;;;;42.27;12.57;;;;;;;-141.97;nan;47611.34;5037809;28;20165;-86
2023/10/26 10:57:34;;;;;;;41.97;12.33;;;;;;;-141.97;nan;47497.94;5042671;28;20173;-87
2023/10/26 11:00:00;;;;;;;38.57;12.30;;;;;;;-141.97;nan;47628.63;5072883;28;20248;-87
2023/10/26 11:02:25;;;;;;;42.87;12.07;;;;;;;-141.97;nan;47634.41;5054868;28;20173;-87
2023/10/26 11:04:55;;;;;;;47.90;12.87;;;;;;;-141.97;nan;47642.09;5074714;28;20566;-86
2023/10/26 11:07:30;;;;;;;44.83;13.30;;;;;;;-141.97;nan;47590.19;5058487;28;20189;-87
2023/10/26 11:10:00;;;;;;;41.00;13.13;;;;;;;-141.97;nan;47551.75;5034853;28;20215;-87
2023/10/26 11:12:26;;;;;;;44.53;13.73;;;;;;;-141.97;nan;47586.34;5037620;28;20188;-87
2023/10/26 11:15:11;;;;;;;40.13;13.87;;;;;;;-141.97;nan;47645.94;5012516;28;20319;-86